Time;durP1;ratioP1;P1;durP2;ratioP2;P2;SDS_P1;SDS_P2;PMS_P1;PMS_P2;Temp;Humidity;BMP_temperature;BMP_pressure;BME280_temperature;BME280_humidity;BME280_pressure;Samples;Min_cycle;Max_cycle;Signal;HPM_P1;HPM_P2
2023/05/27 00:00:45;;;;;;;6.38;4.90;;;;;;;;;;2040300;29;20061;-91
2023/05/27 00:01:46;;;;;;;8.17;5.33;;;;;;;;;;1692794;29;10406919;-91
2023/05/27 00:02:46;;;;;;;6.07;5.10;;;;;;;;;;1700356;29;10177873;-92
2023/05/27 00:03:47;;;;;;;5.72;4.70;;;;;;;;;;2048363;29;20588;-90
2023/05/27 00:04:47;;;;;;;6.10;4.93;;;;;;;;;;2048216;29;20034;-90
2023/05/27 00:05:48;;;;;;;8.13;4.70;;;;;;;;;;1693252;29;10387020;-91
2023/05/27 00:06:48;;;;;;;6.15;4.68;;;;;;;;;;2048266;29;20031;-91
2023/05/27 00:07:49;;;;;;;6.15;4.85;;;;;;;;;;2057311;28;20054;-90
2023/05/27 00:08:50;;;;;;;7.82;5.57;;;;;;;;;;2057467;28;20047;-89
2023/05/27 00:09:51;;;;;;;6.50;4.85;;;;;;;;;;2057267;28;20037;-90
2023/05/27 00:10:54;;;;;;;5.70;5.05;;;;;;;;;;2048895;29;20115;-91
2023/05/27 00:11:57;;;;;;;7.65;5.20;;;;;;;;;;2041486;29;20106;-91
2023/05/27 00:12:58;;;;;;;6.75;5.32;;;;;;;;;;2050785;29;20099;-93
2023/05/27 00:14:01;;;;;;;8.93;4.80;;;;;;;;;;2042376;29;20036;-94
2023/05/27 00:15:04;;;;;;;7.28;4.60;;;;;;;;;;2043478;29;20024;-95
2023/05/27 00:16:05;;;;;;;5.68;5.00;;;;;;;;;;2049647;29;20039;-92
2023/05/27 00:17:06;;;;;;;6.13;4.72;;;;;;;;;;2057804;29;20011;-94
2023/05/27 00:18:06;;;;;;;7.13;5.03;;;;;;;;;;2049860;29;20035;-94
2023/05/27 00:19:07;;;;;;;5.15;4.63;;;;;;;;;;2042560;29;20057;-91
2023/05/27 00:20:16;;;;;;;8.24;4.60;;;;;;;;;;1955897;29;10234949;-91
2023/05/27 00:21:18;;;;;;;6.97;5.03;;;;;;;;;;2048662;29;20285;-91
2023/05/27 00:22:19;;;;;;;6.10;5.15;;;;;;;;;;2041157;29;20414;-91
2023/05/27 00:23:22;;;;;;;7.65;5.00;;;;;;;;;;2048802;28;20479;-91
2023/05/27 00:24:23;;;;;;;5.70;4.60;;;;;;;;;;2048507;29;20049;-91
2023/05/27 00:25:26;;;;;;;5.65;4.45;;;;;;;;;;2048864;29;20015;-89
2023/05/27 00:26:27;;;;;;;6.07;4.40;;;;;;;;;;2041699;29;20038;-92
2023/05/27 00:27:27;;;;;;;5.43;4.53;;;;;;;;;;2042141;29;20104;-95
2023/05/27 00:28:30;;;;;;;7.05;4.75;;;;;;;;;;2049811;29;20027;-92
2023/05/27 00:29:36;;;;;;;5.72;4.93;;;;;;;;;;2051558;28;20573;-95
2023/05/27 00:30:37;;;;;;;5.28;4.20;;;;;;;;;;2060169;28;20054;-94
2023/05/27 00:31:47;;;;;;;6.43;4.78;;;;;;;;;;2052502;29;20039;-95
2023/05/27 00:32:50;;;;;;;6.00;4.50;;;;;;;;;;2046001;29;20032;-94
2023/05/27 00:34:02;;;;;;;8.23;4.55;;;;;;;;;;2047430;29;20534;-94
2023/05/27 00:35:04;;;;;;;5.75;4.53;;;;;;;;;;2052518;28;20035;-90
2023/05/27 00:36:05;;;;;;;5.10;4.38;;;;;;;;;;2049892;29;20035;-96
2023/05/27 00:37:06;;;;;;;7.95;4.18;;;;;;;;;;2042028;29;20035;-94
2023/05/27 00:38:06;;;;;;;5.88;4.68;;;;;;;;;;2041982;29;20075;-96
2023/05/27 00:39:07;;;;;;;5.95;4.22;;;;;;;;;;2041708;29;20024;-93
2023/05/27 00:40:14;;;;;;;4.63;4.00;;;;;;;;;;2049909;28;20541;-95
2023/05/27 00:41:14;;;;;;;5.82;4.60;;;;;;;;;;2050104;29;20033;-93
2023/05/27 00:42:16;;;;;;;7.88;4.60;;;;;;;;;;2041923;29;20023;-95
2023/05/27 00:43:16;;;;;;;6.72;4.30;;;;;;;;;;2049697;29;20082;-96
2023/05/27 00:44:17;;;;;;;5.00;3.90;;;;;;;;;;2049598;29;20055;-94
2023/05/27 00:45:18;;;;;;;4.47;3.80;;;;;;;;;;2049746;29;20019;-95
2023/05/27 00:46:19;;;;;;;5.18;4.00;;;;;;;;;;2049467;29;20023;-94
2023/05/27 00:47:19;;;;;;;8.23;4.28;;;;;;;;;;2041940;29;20019;-95
2023/05/27 00:48:20;;;;;;;5.97;5.07;;;;;;;;;;1350609;29;10020961;-95
2023/05/27 00:49:21;;;;;;;7.40;4.03;;;;;;;;;;2049454;29;20031;-95
2023/05/27 00:50:22;;;;;;;5.70;4.03;;;;;;;;;;2041729;29;20051;-94
2023/05/27 00:51:23;;;;;;;6.28;4.15;;;;;;;;;;1692549;29;10234357;-95
2023/05/27 00:52:25;;;;;;;4.82;4.32;;;;;;;;;;2041643;29;20026;-96
2023/05/27 00:53:26;;;;;;;5.95;3.95;;;;;;;;;;2049773;28;20050;-91
2023/05/27 00:54:38;;;;;;;;;;;;;;;;;;;;;
2023/05/27 00:55:39;;;;;;;4.43;3.90;;;;;;;;;;2049740;28;20058;-92
2023/05/27 00:56:39;;;;;;;7.53;4.30;;;;;;;;;;2048408;29;20027;-92
2023/05/27 00:57:40;;;;;;;4.97;3.95;;;;;;;;;;2048574;28;20506;-90
2023/05/27 00:58:44;;;;;;;5.55;4.53;;;;;;;;;;2048175;29;20043;-92
2023/05/27 00:59:45;;;;;;;6.40;3.97;;;;;;;;;;2048020;29;20058;-90
2023/05/27 01:00:45;;;;;;;6.13;3.83;;;;;;;;;;2040590;29;20586;-91
2023/05/27 01:01:46;;;;;;;7.38;3.83;;;;;;;;;;2048317;29;20054;-90
2023/05/27 01:02:47;;;;;;;4.53;3.92;;;;;;;;;;2048043;29;20054;-90
2023/05/27 01:03:47;;;;;;;6.20;4.10;;;;;;;;;;2048500;29;20188;-91
2023/05/27 01:04:48;;;;;;;6.32;4.15;;;;;;;;;;2048478;29;20023;-91
2023/05/27 01:05:51;;;;;;;6.65;4.20;;;;;;;;;;2048299;29;20023;-92
2023/05/27 01:07:15;;;;;;;6.25;4.40;;;;;;;;;;2048390;29;20118;-92
2023/05/27 01:08:33;;;;;;;5.15;3.72;;;;;;;;;;1695936;29;10255808;-90
2023/05/27 01:09:39;;;;;;;5.32;4.13;;;;;;;;;;2050656;28;20078;-90
2023/05/27 01:10:48;;;;;;;5.78;4.07;;;;;;;;;;2048042;29;20589;-90
2023/05/27 01:12:07;;;;;;;6.57;4.05;;;;;;;;;;2041479;29;20028;-91
2023/05/27 01:13:40;;;;;;;4.70;3.97;;;;;;;;;;2050927;28;20121;-91
2023/05/27 01:14:43;;;;;;;6.10;4.38;;;;;;;;;;2048016;29;20459;-91
2023/05/27 01:15:47;;;;;;;4.97;3.83;;;;;;;;;;2048578;28;20024;-92
2023/05/27 01:16:51;;;;;;;5.07;4.50;;;;;;;;;;2047828;29;20487;-90
2023/05/27 01:17:56;;;;;;;6.45;4.53;;;;;;;;;;2047819;29;20101;-92
2023/05/27 01:18:59;;;;;;;4.65;4.20;;;;;;;;;;2040450;29;20059;-90
2023/05/27 01:20:04;;;;;;;4.80;4.30;;;;;;;;;;2048641;28;20588;-90
2023/05/27 01:21:07;;;;;;;7.30;4.53;;;;;;;;;;2048361;28;20038;-90
2023/05/27 01:22:11;;;;;;;4.97;4.20;;;;;;;;;;2048223;29;20027;-91
2023/05/27 01:23:12;;;;;;;4.45;3.83;;;;;;;;;;2040638;29;20059;-91
2023/05/27 01:24:12;;;;;;;7.03;4.28;;;;;;;;;;2040168;29;20106;-91
2023/05/27 01:25:14;;;;;;;4.80;4.03;;;;;;;;;;2048050;29;20510;-91
2023/05/27 01:26:14;;;;;;;7.20;4.25;;;;;;;;;;2048032;28;20077;-91
2023/05/27 01:27:15;;;;;;;4.93;3.80;;;;;;;;;;2040588;29;20027;-92
2023/05/27 01:28:15;;;;;;;6.57;4.35;;;;;;;;;;2048098;29;20142;-90
2023/05/27 01:29:16;;;;;;;5.47;4.13;;;;;;;;;;2048016;29;20062;-91
2023/05/27 01:30:16;;;;;;;5.30;4.07;;;;;;;;;;2040370;29;20326;-90
2023/05/27 01:31:23;;;;;;;4.57;3.85;;;;;;;;;;2048199;29;20490;-90
2023/05/27 01:32:51;;;;;;;7.00;4.25;;;;;;;;;;2047811;29;20448;-91
2023/05/27 01:34:06;;;;;;;4.60;3.70;;;;;;;;;;2048074;29;20043;-90
2023/05/27 01:35:21;;;;;;;5.80;4.00;;;;;;;;;;2050014;28;20058;-89
2023/05/27 01:36:24;;;;;;;5.50;3.67;;;;;;;;;;2056693;28;20031;-90
2023/05/27 01:37:30;;;;;;;6.75;4.57;;;;;;;;;;2056509;28;20039;-90
2023/05/27 01:38:32;;;;;;;4.82;4.15;;;;;;;;;;2047922;29;20538;-89
2023/05/27 01:39:34;;;;;;;5.57;4.10;;;;;;;;;;2047942;29;20066;-90
2023/05/27 01:40:34;;;;;;;6.22;4.10;;;;;;;;;;2039916;29;20334;-90
2023/05/27 01:41:35;;;;;;;6.00;4.43;;;;;;;;;;2040112;29;20034;-90
2023/05/27 01:42:37;;;;;;;5.93;4.25;;;;;;;;;;2040095;29;20032;-90
2023/05/27 01:43:41;;;;;;;6.95;4.22;;;;;;;;;;2040406;29;20480;-92
2023/05/27 01:44:42;;;;;;;6.10;4.55;;;;;;;;;;2048584;28;20439;-90
2023/05/27 01:45:44;;;;;;;7.47;4.03;;;;;;;;;;2047869;29;20574;-91
2023/05/27 01:46:45;;;;;;;6.10;4.40;;;;;;;;;;2039624;29;20577;-90
2023/05/27 01:47:45;;;;;;;6.25;4.28;;;;;;;;;;2047658;29;20051;-90
2023/05/27 01:48:46;;;;;;;5.63;3.97;;;;;;;;;;2039963;29;20365;-91
2023/05/27 01:49:46;;;;;;;6.50;4.78;;;;;;;;;;2048158;29;20119;-92
2023/05/27 01:50:47;;;;;;;7.63;4.43;;;;;;;;;;2056362;28;20027;-90
2023/05/27 01:51:47;;;;;;;6.32;4.63;;;;;;;;;;2047809;29;20023;-90
2023/05/27 01:52:48;;;;;;;7.57;4.55;;;;;;;;;;2040287;29;20023;-90
2023/05/27 01:53:48;;;;;;;5.07;4.03;;;;;;;;;;2048240;29;20549;-90
2023/05/27 01:54:49;;;;;;;6.93;5.15;;;;;;;;;;2047759;29;20035;-90
2023/05/27 01:55:49;;;;;;;5.38;4.20;;;;;;;;;;2039879;29;20051;-90
2023/05/27 01:56:50;;;;;;;4.93;4.15;;;;;;;;;;2039703;29;20119;-90
2023/05/27 01:57:50;;;;;;;6.78;4.13;;;;;;;;;;2040071;29;20131;-91
2023/05/27 01:58:51;;;;;;;5.03;4.25;;;;;;;;;;2040849;29;20175;-89
2023/05/27 01:59:51;;;;;;;5.00;4.10;;;;;;;;;;2040961;29;20090;-90
2023/05/27 02:00:53;;;;;;;5.60;4.13;;;;;;;;;;2039716;29;20055;-90
2023/05/27 02:01:53;;;;;;;5.03;3.80;;;;;;;;;;2047934;28;20031;-90
2023/05/27 02:02:54;;;;;;;5.32;4.30;;;;;;;;;;2047587;29;20033;-90
2023/05/27 02:03:54;;;;;;;5.40;4.10;;;;;;;;;;2053867;28;20086;-90
2023/05/27 02:04:54;;;;;;;5.40;4.05;;;;;;;;;;2057264;29;20027;-89
2023/05/27 02:05:55;;;;;;;5.22;4.20;;;;;;;;;;2049099;29;20031;-90
2023/05/27 02:06:55;;;;;;;5.15;4.30;;;;;;;;;;2048337;29;20099;-91
2023/05/27 02:07:56;;;;;;;6.20;3.72;;;;;;;;;;2052747;29;20023;-87
2023/05/27 02:08:56;;;;;;;5.78;4.15;;;;;;;;;;2042103;29;20032;-90
2023/05/27 02:09:57;;;;;;;4.97;4.15;;;;;;;;;;2048189;29;20035;-91
2023/05/27 02:10:59;;;;;;;6.45;4.30;;;;;;;;;;1696208;29;10245479;-91
2023/05/27 02:11:59;;;;;;;5.93;4.07;;;;;;;;;;2048481;28;20056;-90
2023/05/27 02:13:00;;;;;;;5.50;4.43;;;;;;;;;;2047637;29;20230;-89
2023/05/27 02:14:01;;;;;;;5.03;3.97;;;;;;;;;;2048046;29;20043;-89
2023/05/27 02:15:01;;;;;;;7.68;4.32;;;;;;;;;;2056277;28;20088;-89
2023/05/27 02:16:02;;;;;;;5.13;4.07;;;;;;;;;;2048016;29;20083;-90
2023/05/27 02:17:04;;;;;;;4.72;4.22;;;;;;;;;;2039555;29;20043;-90
2023/05/27 02:18:05;;;;;;;4.80;4.22;;;;;;;;;;2047776;28;20023;-90
2023/05/27 02:19:06;;;;;;;5.80;4.05;;;;;;;;;;2056334;28;20026;-89
2023/05/27 02:20:07;;;;;;;5.15;3.92;;;;;;;;;;2047794;29;20027;-91
2023/05/27 02:21:07;;;;;;;5.28;4.40;;;;;;;;;;2040150;29;20440;-90
2023/05/27 02:22:08;;;;;;;5.93;4.00;;;;;;;;;;2039686;29;20500;-90
2023/05/27 02:23:08;;;;;;;6.22;4.35;;;;;;;;;;2051595;29;20027;-89
2023/05/27 02:24:09;;;;;;;5.85;4.28;;;;;;;;;;2056338;29;20027;-89
2023/05/27 02:25:09;;;;;;;6.25;4.45;;;;;;;;;;2048763;29;20024;-90
2023/05/27 02:26:10;;;;;;;9.05;5.15;;;;;;;;;;2056524;29;20035;-90
2023/05/27 02:27:10;;;;;;;5.85;4.20;;;;;;;;;;2062831;28;20042;-91
2023/05/27 02:28:11;;;;;;;5.40;4.65;;;;;;;;;;2060437;28;20031;-90
2023/05/27 02:29:11;;;;;;;5.85;4.22;;;;;;;;;;2049227;29;20027;-91
2023/05/27 02:30:13;;;;;;;4.63;4.15;;;;;;;;;;2052539;29;20031;-89
2023/05/27 02:31:13;;;;;;;5.43;4.43;;;;;;;;;;2057014;28;20062;-89
2023/05/27 02:32:14;;;;;;;6.75;4.55;;;;;;;;;;2039758;29;20472;-89
2023/05/27 02:33:14;;;;;;;8.02;4.40;;;;;;;;;;2039727;29;20032;-90
2023/05/27 02:34:15;;;;;;;5.22;4.45;;;;;;;;;;2047379;29;20284;-89
2023/05/27 02:35:24;;;;;;;4.78;4.20;;;;;;;;;;2048371;28;20046;-91
2023/05/27 02:36:25;;;;;;;6.25;4.30;;;;;;;;;;2056098;28;20026;-91
2023/05/27 02:37:27;;;;;;;7.53;4.55;;;;;;;;;;2047423;29;20026;-91
2023/05/27 02:38:28;;;;;;;4.88;4.38;;;;;;;;;;2047658;28;20055;-90
2023/05/27 02:39:28;;;;;;;6.75;4.70;;;;;;;;;;2047497;29;20379;-90
2023/05/27 02:40:29;;;;;;;7.43;4.80;;;;;;;;;;2039529;29;20062;-90
2023/05/27 02:41:30;;;;;;;6.03;4.50;;;;;;;;;;2039303;29;20023;-91
2023/05/27 02:42:30;;;;;;;6.10;4.35;;;;;;;;;;2047541;28;20456;-89
2023/05/27 02:43:33;;;;;;;5.20;4.40;;;;;;;;;;2056443;28;20423;-92
2023/05/27 02:44:33;;;;;;;6.70;5.07;;;;;;;;;;1698485;28;10432299;-92
2023/05/27 02:45:34;;;;;;;7.28;4.63;;;;;;;;;;2048112;29;20066;-91
2023/05/27 02:46:34;;;;;;;7.93;4.68;;;;;;;;;;2040178;29;20057;-92
2023/05/27 02:47:35;;;;;;;6.43;4.68;;;;;;;;;;2039833;29;20118;-92
2023/05/27 02:48:35;;;;;;;8.90;5.18;;;;;;;;;;2047947;29;20046;-91
2023/05/27 02:49:36;;;;;;;6.85;4.63;;;;;;;;;;2056797;28;20124;-90
2023/05/27 02:50:39;;;;;;;9.07;4.85;;;;;;;;;;2050166;29;20098;-90
2023/05/27 02:51:42;;;;;;;7.78;5.10;;;;;;;;;;2040582;29;20042;-91
2023/05/27 02:52:44;;;;;;;6.78;5.15;;;;;;;;;;1358694;29;10001078;-91
2023/05/27 02:53:45;;;;;;;8.13;5.00;;;;;;;;;;2047771;28;20050;-91
2023/05/27 02:54:45;;;;;;;6.38;4.70;;;;;;;;;;2047635;29;20072;-90
2023/05/27 02:55:46;;;;;;;6.35;4.65;;;;;;;;;;2047668;29;20467;-90
2023/05/27 02:56:46;;;;;;;5.10;4.60;;;;;;;;;;2048185;29;20054;-91
2023/05/27 02:57:46;;;;;;;5.47;4.60;;;;;;;;;;2047712;29;20387;-91
2023/05/27 02:58:47;;;;;;;7.15;5.07;;;;;;;;;;2039979;29;20136;-91
2023/05/27 02:59:47;;;;;;;8.20;5.13;;;;;;;;;;2047703;29;20038;-91
2023/05/27 03:00:48;;;;;;;7.38;4.95;;;;;;;;;;2048054;29;20032;-91
2023/05/27 03:01:48;;;;;;;8.23;5.03;;;;;;;;;;2044866;29;20075;-91
2023/05/27 03:02:49;;;;;;;6.72;4.78;;;;;;;;;;1691081;29;10245176;-91
2023/05/27 03:03:49;;;;;;;5.18;4.40;;;;;;;;;;2039823;29;20031;-91
2023/05/27 03:04:51;;;;;;;10.00;5.38;;;;;;;;;;2047911;29;20087;-91
2023/05/27 03:05:54;;;;;;;8.63;5.03;;;;;;;;;;2056440;28;20070;-91
2023/05/27 03:06:55;;;;;;;6.20;4.65;;;;;;;;;;2048255;29;20559;-91
2023/05/27 03:07:55;;;;;;;5.93;4.90;;;;;;;;;;2040173;29;20098;-91
2023/05/27 03:08:56;;;;;;;5.68;4.85;;;;;;;;;;2047258;29;20111;-91
2023/05/27 03:09:57;;;;;;;7.57;4.30;;;;;;;;;;2053952;28;20089;-91
2023/05/27 03:10:58;;;;;;;5.90;4.53;;;;;;;;;;2047929;29;20023;-91
2023/05/27 03:11:58;;;;;;;6.55;4.93;;;;;;;;;;2039873;29;20028;-91
2023/05/27 03:12:59;;;;;;;8.48;4.97;;;;;;;;;;2039954;29;20035;-92
2023/05/27 03:14:00;;;;;;;6.40;4.90;;;;;;;;;;2047831;29;20539;-91
2023/05/27 03:15:01;;;;;;;5.78;4.50;;;;;;;;;;2056366;28;20027;-91
2023/05/27 03:16:04;;;;;;;6.32;4.97;;;;;;;;;;2056030;28;20466;-91
2023/05/27 03:17:04;;;;;;;8.50;5.03;;;;;;;;;;2056352;28;20039;-91
2023/05/27 03:18:05;;;;;;;9.38;5.38;;;;;;;;;;2047793;29;20114;-92
2023/05/27 03:19:05;;;;;;;6.13;5.00;;;;;;;;;;1702463;29;10106684;-91
2023/05/27 03:20:07;;;;;;;6.10;5.28;;;;;;;;;;2047965;29;20526;-91
2023/05/27 03:21:08;;;;;;;7.05;5.30;;;;;;;;;;2047855;28;20035;-91
2023/05/27 03:22:09;;;;;;;6.53;5.28;;;;;;;;;;2041449;29;20443;-91
2023/05/27 03:23:09;;;;;;;9.52;5.30;;;;;;;;;;2049520;29;20105;-91
2023/05/27 03:24:10;;;;;;;8.55;5.30;;;;;;;;;;2041561;29;20168;-91
2023/05/27 03:25:13;;;;;;;6.18;4.93;;;;;;;;;;2049444;29;20058;-91
2023/05/27 03:26:13;;;;;;;7.70;4.85;;;;;;;;;;2041411;29;20044;-90
2023/05/27 03:27:13;;;;;;;6.38;5.15;;;;;;;;;;2041727;29;20111;-91
2023/05/27 03:28:15;;;;;;;5.20;4.70;;;;;;;;;;2048792;29;20129;-90
2023/05/27 03:29:16;;;;;;;6.63;5.05;;;;;;;;;;2049768;28;20451;-91
2023/05/27 03:30:16;;;;;;;8.27;4.80;;;;;;;;;;2049532;29;20030;-91
2023/05/27 03:31:17;;;;;;;5.45;4.90;;;;;;;;;;2049198;29;20035;-90
2023/05/27 03:32:17;;;;;;;8.52;5.10;;;;;;;;;;2049062;29;20035;-91
2023/05/27 03:33:18;;;;;;;6.65;4.72;;;;;;;;;;2049219;29;20027;-90
2023/05/27 03:34:18;;;;;;;5.43;4.88;;;;;;;;;;2057857;28;20046;-91
2023/05/27 03:35:19;;;;;;;6.18;4.55;;;;;;;;;;2057920;28;20027;-91
2023/05/27 03:36:20;;;;;;;6.32;4.50;;;;;;;;;;2058016;28;20124;-90
2023/05/27 03:37:24;;;;;;;4.65;4.07;;;;;;;;;;1778995;28;10001507;-90
2023/05/27 03:38:24;;;;;;;6.90;4.55;;;;;;;;;;1700052;29;10000729;-91
2023/05/27 03:39:31;;;;;;;4.98;4.20;;;;;;;;;;1907620;29;10394623;-91
2023/05/27 03:40:32;;;;;;;6.32;4.32;;;;;;;;;;2041967;29;20328;-90
2023/05/27 03:41:32;;;;;;;5.20;4.20;;;;;;;;;;2042954;29;20027;-90
2023/05/27 03:42:33;;;;;;;4.53;4.03;;;;;;;;;;2049169;29;20110;-91
2023/05/27 03:43:34;;;;;;;5.00;3.78;;;;;;;;;;2049061;29;20027;-91
2023/05/27 03:44:35;;;;;;;4.78;4.28;;;;;;;;;;2040965;29;20106;-89
2023/05/27 03:45:36;;;;;;;5.07;4.32;;;;;;;;;;2040783;29;20048;-91
2023/05/27 03:46:37;;;;;;;4.95;3.83;;;;;;;;;;2040908;29;20039;-90
2023/05/27 03:47:38;;;;;;;6.03;4.40;;;;;;;;;;2049152;28;20031;-90
2023/05/27 03:48:38;;;;;;;5.10;3.92;;;;;;;;;;2046863;28;20436;-91
2023/05/27 03:49:39;;;;;;;7.80;3.85;;;;;;;;;;2057531;28;20471;-90
2023/05/27 03:50:39;;;;;;;8.77;4.65;;;;;;;;;;2057478;28;20038;-90
2023/05/27 03:51:40;;;;;;;5.63;4.50;;;;;;;;;;2048706;29;20038;-89
2023/05/27 03:52:40;;;;;;;5.18;3.67;;;;;;;;;;2040891;29;20496;-88
2023/05/27 03:53:41;;;;;;;5.68;4.05;;;;;;;;;;2048565;29;20027;-89
2023/05/27 03:54:41;;;;;;;4.32;3.90;;;;;;;;;;2049177;29;20023;-89
2023/05/27 03:55:42;;;;;;;5.15;4.03;;;;;;;;;;2040615;29;20024;-89
2023/05/27 03:56:42;;;;;;;5.15;3.78;;;;;;;;;;2040696;29;20046;-90
2023/05/27 03:57:43;;;;;;;5.53;3.53;;;;;;;;;;2048400;29;20039;-90
2023/05/27 03:58:44;;;;;;;6.60;4.07;;;;;;;;;;2057465;28;20030;-94
2023/05/27 03:59:44;;;;;;;4.50;3.58;;;;;;;;;;2050539;29;20035;-94
2023/05/27 04:00:47;;;;;;;5.10;3.40;;;;;;;;;;2050365;29;20027;-93
2023/05/27 04:01:48;;;;;;;4.55;3.75;;;;;;;;;;2049840;29;20035;-96
2023/05/27 04:02:49;;;;;;;7.40;4.15;;;;;;;;;;2041790;29;20059;-95
2023/05/27 04:03:50;;;;;;;3.72;3.25;;;;;;;;;;2042262;29;20118;-93
2023/05/27 04:04:50;;;;;;;7.85;4.35;;;;;;;;;;2042114;29;20584;-94
2023/05/27 04:05:51;;;;;;;3.95;3.30;;;;;;;;;;2048499;28;20031;-89
2023/05/27 04:06:53;;;;;;;5.97;3.83;;;;;;;;;;2056964;28;20424;-89
2023/05/27 04:07:53;;;;;;;5.25;4.50;;;;;;;;;;2048437;29;20507;-90
2023/05/27 04:08:55;;;;;;;5.35;4.20;;;;;;;;;;2048238;29;20093;-89
2023/05/27 04:09:55;;;;;;;5.60;3.90;;;;;;;;;;2048979;28;20470;-89
2023/05/27 04:10:55;;;;;;;7.10;4.25;;;;;;;;;;2048148;29;20030;-88
2023/05/27 04:11:56;;;;;;;6.88;3.58;;;;;;;;;;2048267;29;20409;-88
2023/05/27 04:12:57;;;;;;;6.00;3.80;;;;;;;;;;2041377;29;20464;-90
2023/05/27 04:14:06;;;;;;;6.68;4.28;;;;;;;;;;1891245;29;10273418;-89
2023/05/27 04:15:08;;;;;;;5.93;3.33;;;;;;;;;;2041780;29;20791;-92
2023/05/27 04:16:12;;;;;;;7.07;3.90;;;;;;;;;;2048471;28;20035;-88
2023/05/27 04:17:13;;;;;;;4.70;4.20;;;;;;;;;;2048338;29;20027;-90
2023/05/27 04:18:13;;;;;;;6.32;4.13;;;;;;;;;;2048307;29;20049;-89
2023/05/27 04:19:14;;;;;;;6.28;4.00;;;;;;;;;;2048278;29;20023;-90
2023/05/27 04:20:15;;;;;;;5.13;3.50;;;;;;;;;;2040671;29;20154;-91
2023/05/27 04:21:15;;;;;;;4.93;3.97;;;;;;;;;;2040163;29;20122;-89
2023/05/27 04:22:16;;;;;;;5.30;4.13;;;;;;;;;;2048612;29;20461;-89
2023/05/27 04:23:16;;;;;;;6.40;4.07;;;;;;;;;;2048240;29;20159;-90
2023/05/27 04:24:17;;;;;;;8.57;3.90;;;;;;;;;;2048472;29;20176;-90
2023/05/27 04:25:17;;;;;;;5.78;3.78;;;;;;;;;;2048401;29;20181;-90
2023/05/27 04:26:18;;;;;;;4.55;4.00;;;;;;;;;;2040413;29;20181;-91
2023/05/27 04:27:19;;;;;;;6.40;4.63;;;;;;;;;;2040313;29;20476;-90
2023/05/27 04:28:20;;;;;;;7.05;4.15;;;;;;;;;;2039696;29;20051;-91
2023/05/27 04:29:22;;;;;;;6.32;4.28;;;;;;;;;;2047775;29;20034;-89
2023/05/27 04:30:23;;;;;;;4.55;3.45;;;;;;;;;;1703594;29;10063976;-90
2023/05/27 04:31:23;;;;;;;8.80;4.20;;;;;;;;;;2048049;29;20061;-90
2023/05/27 04:32:27;;;;;;;8.07;4.18;;;;;;;;;;2047660;28;20511;-89
2023/05/27 04:33:27;;;;;;;6.63;4.20;;;;;;;;;;2040391;29;20028;-89
2023/05/27 04:34:28;;;;;;;5.15;4.10;;;;;;;;;;2048599;29;20138;-90
2023/05/27 04:35:31;;;;;;;7.28;4.20;;;;;;;;;;2057744;28;20015;-91
2023/05/27 04:36:34;;;;;;;5.38;3.92;;;;;;;;;;2054197;29;20050;-90
2023/05/27 04:37:36;;;;;;;6.80;4.13;;;;;;;;;;1695830;29;10475069;-90
2023/05/27 04:38:36;;;;;;;7.55;4.30;;;;;;;;;;2056084;29;20035;-89
2023/05/27 04:39:40;;;;;;;5.20;4.07;;;;;;;;;;2046988;29;20027;-90
2023/05/27 04:40:41;;;;;;;5.18;4.40;;;;;;;;;;2042157;29;20035;-89
2023/05/27 04:41:44;;;;;;;6.10;4.00;;;;;;;;;;1394316;29;10443833;-91
2023/05/27 04:42:45;;;;;;;5.57;4.47;;;;;;;;;;2048702;28;20339;-88
2023/05/27 04:43:46;;;;;;;4.35;3.60;;;;;;;;;;2057720;28;20027;-90
2023/05/27 04:44:48;;;;;;;4.53;3.75;;;;;;;;;;2049506;28;20484;-90
2023/05/27 04:45:49;;;;;;;6.63;4.38;;;;;;;;;;2049612;29;20027;-90
2023/05/27 04:46:49;;;;;;;5.97;3.90;;;;;;;;;;2049616;29;20139;-90
2023/05/27 04:47:50;;;;;;;5.55;3.78;;;;;;;;;;2048784;29;20095;-91
2023/05/27 04:48:54;;;;;;;6.25;4.25;;;;;;;;;;2040946;29;20496;-90
2023/05/27 04:49:54;;;;;;;6.43;4.28;;;;;;;;;;2041251;29;20156;-92
2023/05/27 04:51:08;;;;;;;5.07;3.88;;;;;;;;;;2041299;29;20028;-91
2023/05/27 04:52:10;;;;;;;4.45;3.70;;;;;;;;;;2049676;29;20043;-90
2023/05/27 04:53:11;;;;;;;7.85;4.13;;;;;;;;;;2049849;29;20355;-90
2023/05/27 04:54:11;;;;;;;7.72;4.15;;;;;;;;;;2058551;28;20029;-91
2023/05/27 04:55:13;;;;;;;4.80;3.50;;;;;;;;;;2050810;28;20124;-89
2023/05/27 04:56:16;;;;;;;5.47;3.97;;;;;;;;;;2058175;28;20030;-88
2023/05/27 04:57:18;;;;;;;5.30;4.32;;;;;;;;;;2056395;28;20066;-89
2023/05/27 04:58:18;;;;;;;5.18;4.07;;;;;;;;;;2054896;29;20027;-87
2023/05/27 04:59:21;;;;;;;5.22;3.65;;;;;;;;;;2053405;29;20054;-88
2023/05/27 05:02:21;;;;;;;7.78;3.95;;;;;;;;;;2023369;29;20294;-90
2023/05/27 05:03:22;;;;;;;8.38;4.13;;;;;;;;;;2047794;29;20031;-89
2023/05/27 05:04:22;;;;;;;4.95;3.75;;;;;;;;;;2048006;29;20035;-89
2023/05/27 05:05:23;;;;;;;4.82;3.88;;;;;;;;;;2047315;29;20477;-89
2023/05/27 05:06:24;;;;;;;6.95;3.97;;;;;;;;;;2047314;29;20456;-89
2023/05/27 05:07:24;;;;;;;7.07;3.75;;;;;;;;;;2047275;29;20438;-89
2023/05/27 05:08:25;;;;;;;4.63;3.85;;;;;;;;;;2047081;29;20045;-89
2023/05/27 05:09:25;;;;;;;5.55;4.43;;;;;;;;;;2047483;29;20035;-89
2023/05/27 05:10:26;;;;;;;6.70;4.18;;;;;;;;;;2047377;29;20458;-90
2023/05/27 05:11:26;;;;;;;5.75;4.03;;;;;;;;;;2047312;29;20031;-90
2023/05/27 05:12:27;;;;;;;4.45;3.80;;;;;;;;;;2047507;29;20070;-89
2023/05/27 05:13:28;;;;;;;5.75;3.92;;;;;;;;;;2047372;29;20136;-90
2023/05/27 05:14:30;;;;;;;7.43;3.92;;;;;;;;;;2047367;29;20474;-91
2023/05/27 05:15:31;;;;;;;4.80;4.13;;;;;;;;;;2039538;29;20072;-91
2023/05/27 05:16:32;;;;;;;4.68;3.90;;;;;;;;;;2047646;29;20052;-91
2023/05/27 05:17:33;;;;;;;5.68;3.85;;;;;;;;;;2047628;29;20101;-90
2023/05/27 05:18:35;;;;;;;5.45;3.97;;;;;;;;;;2048027;29;20043;-90
2023/05/27 05:19:35;;;;;;;6.47;3.78;;;;;;;;;;1690843;28;10456454;-90
2023/05/27 05:20:35;;;;;;;6.05;4.45;;;;;;;;;;2047634;29;20272;-90
2023/05/27 05:21:36;;;;;;;5.50;4.32;;;;;;;;;;2040077;29;20105;-91
2023/05/27 05:22:37;;;;;;;6.32;3.83;;;;;;;;;;2040101;29;20195;-91
2023/05/27 05:23:38;;;;;;;5.82;3.78;;;;;;;;;;2048973;28;20151;-89
2023/05/27 05:24:38;;;;;;;6.20;4.05;;;;;;;;;;2050046;28;20364;-91
2023/05/27 05:25:39;;;;;;;4.72;4.00;;;;;;;;;;2048800;29;20019;-91
2023/05/27 05:26:40;;;;;;;4.87;3.93;;;;;;;;;;1698325;28;10249151;-90
2023/05/27 05:27:41;;;;;;;5.57;3.83;;;;;;;;;;2047991;29;20201;-90
2023/05/27 05:28:42;;;;;;;4.25;3.85;;;;;;;;;;2040107;29;20087;-90
2023/05/27 05:29:42;;;;;;;5.65;4.60;;;;;;;;;;2040137;29;20114;-91
2023/05/27 05:30:43;;;;;;;9.45;6.15;;;;;;;;;;2040411;29;20515;-89
2023/05/27 05:31:45;;;;;;;9.90;7.38;;;;;;;;;;1731033;29;10386163;-91
2023/05/27 05:32:45;;;;;;;6.22;4.18;;;;;;;;;;2047666;29;20244;-90
2023/05/27 05:33:45;;;;;;;6.00;4.32;;;;;;;;;;2047856;29;20038;-90
2023/05/27 05:34:46;;;;;;;10.35;5.80;;;;;;;;;;2047688;29;20337;-90
2023/05/27 05:35:46;;;;;;;5.45;4.03;;;;;;;;;;2039687;29;20053;-90
2023/05/27 05:36:49;;;;;;;10.20;4.57;;;;;;;;;;2039898;29;20099;-90
2023/05/27 05:37:50;;;;;;;7.65;5.10;;;;;;;;;;2047799;29;20541;-90
2023/05/27 05:38:50;;;;;;;6.90;5.53;;;;;;;;;;2048730;29;20094;-90
2023/05/27 05:39:51;;;;;;;8.65;5.88;;;;;;;;;;2048568;29;20031;-92
2023/05/27 05:40:54;;;;;;;13.98;8.27;;;;;;;;;;2047734;29;20031;-91
2023/05/27 05:41:57;;;;;;;12.00;6.82;;;;;;;;;;2047668;29;20027;-91
2023/05/27 05:42:57;;;;;;;5.75;4.63;;;;;;;;;;2047817;29;20035;-92
2023/05/27 05:43:58;;;;;;;4.85;3.78;;;;;;;;;;2039475;29;20067;-91
2023/05/27 05:44:58;;;;;;;5.55;4.13;;;;;;;;;;2039741;29;20035;-91
2023/05/27 05:46:07;;;;;;;8.50;4.45;;;;;;;;;;2047611;29;20034;-90
2023/05/27 05:47:14;;;;;;;5.25;3.88;;;;;;;;;;2048073;28;20090;-91
2023/05/27 05:48:41;;;;;;;5.63;4.07;;;;;;;;;;2047035;29;20070;-90
2023/05/27 05:49:44;;;;;;;5.05;3.90;;;;;;;;;;2047110;29;20503;-90
2023/05/27 05:50:45;;;;;;;4.85;4.15;;;;;;;;;;2046407;29;20063;-90
2023/05/27 05:51:45;;;;;;;5.55;3.55;;;;;;;;;;2047008;29;20051;-90
2023/05/27 05:52:46;;;;;;;6.57;3.85;;;;;;;;;;1690702;29;10420763;-90
2023/05/27 05:53:46;;;;;;;7.93;4.30;;;;;;;;;;2047013;29;20219;-91
2023/05/27 05:54:46;;;;;;;6.40;3.70;;;;;;;;;;2047838;29;20054;-90
2023/05/27 05:55:47;;;;;;;6.82;3.80;;;;;;;;;;2047069;29;20097;-90
2023/05/27 05:56:47;;;;;;;6.13;4.53;;;;;;;;;;2039016;29;20055;-90
2023/05/27 05:57:48;;;;;;;5.55;4.22;;;;;;;;;;2046991;29;20514;-90
2023/05/27 05:58:48;;;;;;;7.45;4.28;;;;;;;;;;2047091;29;20031;-90
2023/05/27 05:59:49;;;;;;;7.05;4.50;;;;;;;;;;2038893;29;20483;-89
2023/05/27 06:00:50;;;;;;;7.28;4.25;;;;;;;;;;2047449;29;20043;-90
2023/05/27 06:01:50;;;;;;;6.20;4.15;;;;;;;;;;2048281;29;20074;-91
2023/05/27 06:02:51;;;;;;;4.45;3.65;;;;;;;;;;2041336;29;20085;-88
2023/05/27 06:03:51;;;;;;;6.88;3.97;;;;;;;;;;2040926;29;20338;-90
2023/05/27 06:04:52;;;;;;;8.00;3.95;;;;;;;;;;2050632;29;20106;-89
2023/05/27 06:05:52;;;;;;;;;;;;;;;;;;1704580;29;10079361;-90
2023/05/27 06:06:52;;;;;;;5.80;3.87;;;;;;;;;;2048342;29;19910;-89
2023/05/27 06:07:53;;;;;;;6.90;4.15;;;;;;;;;;2048908;29;20027;-90
2023/05/27 06:08:53;;;;;;;6.30;3.90;;;;;;;;;;2046952;29;20150;-89
2023/05/27 06:09:54;;;;;;;7.22;4.05;;;;;;;;;;2039244;29;20036;-89
2023/05/27 06:10:54;;;;;;;4.13;3.72;;;;;;;;;;2047202;29;20027;-88
2023/05/27 06:11:55;;;;;;;5.07;3.72;;;;;;;;;;2047161;29;20039;-89